Terminal Aerodrome Forecast
Issued by NWS

Home | Current Version | Previous Version | Text Only | Print | Product List | Glossary On
Versions: 1 2 3 4 5 6 7 8 9 10 11 12 13
000
FTUS45 KABQ 192300
TAFGUP
TAF
KGUP 192328Z 2000/2024 36010G20KT P6SM VCSH BKN100
     FM200200 36005KT P6SM SCT100
     FM202200 06010KT P6SM VCSH BKN100=

USA.gov is the U.S. government's official web portal to all federal, state and local government web resources and services.